Aviation Digital Data Service (ADDS)

Output produced by METARs form (1848 UTC 18 April 2019)
found at http://www.aviationweather.gov/metar/data/
 
METAR text: ZGHA 181800Z 00000MPS 6000 NSC 21/20 Q1007 NOSIG
Conditions at: ZGHA (HUANGHUA/CHANGSH, CN) observed 1800 UTC 18 April 2019
Temperature: 21.0°C (70°F)
Dewpoint: 20.0°C (68°F) [RH = 94%]
Pressure (altimeter): 29.73 inches Hg (1007.0 mb)
Winds: calm
Visibility: 4 miles ( 6 km)
Ceiling: at least 12,000 feet AGL
Clouds: sky clear below 12,000 feet AGL
Weather: no significant weather observed at this time

METAR text: ZGHA 181700Z VRB01MPS 6000 NSC 21/20 Q1007 NOSIG
Conditions at: ZGHA (HUANGHUA/CHANGSH, CN) observed 1700 UTC 18 April 2019
Temperature: 21.0°C (70°F)
Dewpoint: 20.0°C (68°F) [RH = 94%]
Pressure (altimeter): 29.73 inches Hg (1007.0 mb)
Winds: variable direction winds at 2 MPH (2 knots; 1.0 m/s)
Visibility: 4 miles ( 6 km)
Ceiling: at least 12,000 feet AGL
Clouds: sky clear below 12,000 feet AGL
Weather: no significant weather observed at this time

METAR text: ZGHA 181600Z 17002MPS 140V220 7000 NSC 21/20 Q1007 NOSIG
Conditions at: ZGHA (HUANGHUA/CHANGSH, CN) observed 1600 UTC 18 April 2019
Temperature: 21.0°C (70°F)
Dewpoint: 20.0°C (68°F) [RH = 94%]
Pressure (altimeter): 29.73 inches Hg (1007.0 mb)
Winds: from the S (170 degrees) at 5 MPH (4 knots; 2.1 m/s)
Visibility: 4 miles ( 7 km)
Ceiling: at least 12,000 feet AGL
Clouds: sky clear below 12,000 feet AGL
Weather: no significant weather observed at this time

METAR text: ZGHA 181500Z 19003MPS 7000 NSC 21/20 Q1007 NOSIG
Conditions at: ZGHA (HUANGHUA/CHANGSH, CN) observed 1500 UTC 18 April 2019
Temperature: 21.0°C (70°F)
Dewpoint: 20.0°C (68°F) [RH = 94%]
Pressure (altimeter): 29.73 inches Hg (1007.0 mb)
Winds: from the S (190 degrees) at 7 MPH (6 knots; 3.1 m/s)
Visibility: 4 miles ( 7 km)
Ceiling: at least 12,000 feet AGL
Clouds: sky clear below 12,000 feet AGL
Weather: no significant weather observed at this time

METAR text: ZGHA 181400Z 09004MPS 6000 -SHRA SCT033 21/20 Q1007 RESHRA NOSIG
Conditions at: ZGHA (HUANGHUA/CHANGSH, CN) observed 1400 UTC 18 April 2019
Temperature: 21.0°C (70°F)
Dewpoint: 20.0°C (68°F) [RH = 94%]
Pressure (altimeter): 29.73 inches Hg (1007.0 mb)
Winds: from the E (90 degrees) at 9 MPH (8 knots; 4.1 m/s)
Visibility: 4 miles ( 6 km)
Ceiling: at least 12,000 feet AGL
Clouds: scattered clouds at 3300 feet AGL
Weather: -SHRA  (light rain showers)

METAR text: ZGHA 181300Z 13003MPS 060V190 6000 SHRA SCT020 21/20 Q1007 BECMG TL1320 -RA
Conditions at: ZGHA (HUANGHUA/CHANGSH, CN) observed 1300 UTC 18 April 2019
Temperature: 21.0°C (70°F)
Dewpoint: 20.0°C (68°F) [RH = 94%]
Pressure (altimeter): 29.73 inches Hg (1007.0 mb)
Winds: from the SE (130 degrees) at 7 MPH (6 knots; 3.1 m/s)
Visibility: 4 miles ( 6 km)
Ceiling: at least 12,000 feet AGL
Clouds: scattered clouds at 2000 feet AGL
Weather: SHRA  (rain showers)

METAR text: ZGHA 181200Z 16002MPS 130V200 9000 -RA NSC 22/19 Q1006 NOSIG
Conditions at: ZGHA (HUANGHUA/CHANGSH, CN) observed 1200 UTC 18 April 2019
Temperature: 22.0°C (72°F)
Dewpoint: 19.0°C (66°F) [RH = 83%]
Pressure (altimeter): 29.70 inches Hg (1006.0 mb)
Winds: from the SSE (160 degrees) at 5 MPH (4 knots; 2.1 m/s)
Visibility: 6 miles ( 9 km)
Ceiling: at least 12,000 feet AGL
Clouds: sky clear below 12,000 feet AGL
Weather: -RA  (light rain)

METAR text: ZGHA 181100Z 13002MPS 100V180 8000 NSC 22/20 Q1005 NOSIG
Conditions at: ZGHA (HUANGHUA/CHANGSH, CN) observed 1100 UTC 18 April 2019
Temperature: 22.0°C (72°F)
Dewpoint: 20.0°C (68°F) [RH = 88%]
Pressure (altimeter): 29.68 inches Hg (1005.0 mb)
Winds: from the SE (130 degrees) at 5 MPH (4 knots; 2.1 m/s)
Visibility: 5 miles ( 8 km)
Ceiling: at least 12,000 feet AGL
Clouds: sky clear below 12,000 feet AGL
Weather: no significant weather observed at this time

METAR text: ZGHA 181000Z 16003MPS 130V190 CAVOK 23/20 Q1005 NOSIG
Conditions at: ZGHA (HUANGHUA/CHANGSH, CN) observed 1000 UTC 18 April 2019
Temperature: 23.0°C (73°F)
Dewpoint: 20.0°C (68°F) [RH = 83%]
Pressure (altimeter): 29.68 inches Hg (1005.0 mb)
Winds: from the SSE (160 degrees) at 7 MPH (6 knots; 3.1 m/s)
Visibility: 6 or more miles (10+ km)
Ceiling: ceiling and visibility are OK
Clouds: unknown
Weather: no significant weather observed at this time

METAR text: ZGHA 180900Z 14004MPS 120V220 CAVOK 24/20 Q1005 NOSIG
Conditions at: ZGHA (HUANGHUA/CHANGSH, CN) observed 0900 UTC 18 April 2019
Temperature: 24.0°C (75°F)
Dewpoint: 20.0°C (68°F) [RH = 78%]
Pressure (altimeter): 29.68 inches Hg (1005.0 mb)
Winds: from the SE (140 degrees) at 9 MPH (8 knots; 4.1 m/s)
Visibility: 6 or more miles (10+ km)
Ceiling: ceiling and visibility are OK
Clouds: unknown
Weather: no significant weather observed at this time

METAR text: ZGHA 180800Z 15004MPS CAVOK 24/20 Q1005 BECMG TL0940 -TSRA BKN011 FEW040CB OVC050
Conditions at: ZGHA (HUANGHUA/CHANGSH, CN) observed 0800 UTC 18 April 2019
Temperature: 24.0°C (75°F)
Dewpoint: 20.0°C (68°F) [RH = 78%]
Pressure (altimeter): 29.68 inches Hg (1005.0 mb)
Winds: from the SSE (150 degrees) at 9 MPH (8 knots; 4.1 m/s)
Visibility: 6 or more miles (10+ km)
Ceiling: ceiling and visibility are OK
Clouds: unknown
Weather: no significant weather observed at this time

METAR text: ZGHA 180700Z 16005MPS 140V200 CAVOK 23/19 Q1005 NOSIG
Conditions at: ZGHA (HUANGHUA/CHANGSH, CN) observed 0700 UTC 18 April 2019
Temperature: 23.0°C (73°F)
Dewpoint: 19.0°C (66°F) [RH = 78%]
Pressure (altimeter): 29.68 inches Hg (1005.0 mb)
Winds: from the SSE (160 degrees) at 12 MPH (10 knots; 5.1 m/s)
Visibility: 6 or more miles (10+ km)
Ceiling: ceiling and visibility are OK
Clouds: unknown
Weather: no significant weather observed at this time

METAR text: ZGHA 180600Z 18007MPS CAVOK 25/18 Q1006 NOSIG
Conditions at: ZGHA (HUANGHUA/CHANGSH, CN) observed 0600 UTC 18 April 2019
Temperature: 25.0°C (77°F)
Dewpoint: 18.0°C (64°F) [RH = 65%]
Pressure (altimeter): 29.70 inches Hg (1006.0 mb)
Winds: from the S (180 degrees) at 16 MPH (14 knots; 7.2 m/s)
Visibility: 6 or more miles (10+ km)
Ceiling: ceiling and visibility are OK
Clouds: unknown
Weather: no significant weather observed at this time

METAR text: ZGHA 180500Z 16006MPS CAVOK 28/17 Q1006 NOSIG
Conditions at: ZGHA (HUANGHUA/CHANGSH, CN) observed 0500 UTC 18 April 2019
Temperature: 28.0°C (82°F)
Dewpoint: 17.0°C (63°F) [RH = 51%]
Pressure (altimeter): 29.70 inches Hg (1006.0 mb)
Winds: from the SSE (160 degrees) at 14 MPH (12 knots; 6.2 m/s)
Visibility: 6 or more miles (10+ km)
Ceiling: ceiling and visibility are OK
Clouds: unknown
Weather: no significant weather observed at this time

METAR text: ZGHA 180400Z 17003MPS 130V210 CAVOK 27/16 Q1007 NOSIG
Conditions at: ZGHA (HUANGHUA/CHANGSH, CN) observed 0400 UTC 18 April 2019
Temperature: 27.0°C (81°F)
Dewpoint: 16.0°C (61°F) [RH = 51%]
Pressure (altimeter): 29.73 inches Hg (1007.0 mb)
Winds: from the S (170 degrees) at 7 MPH (6 knots; 3.1 m/s)
Visibility: 6 or more miles (10+ km)
Ceiling: ceiling and visibility are OK
Clouds: unknown
Weather: no significant weather observed at this time

METAR text: ZGHA 180300Z 17005MPS CAVOK 26/15 Q1007 NOSIG
Conditions at: ZGHA (HUANGHUA/CHANGSH, CN) observed 0300 UTC 18 April 2019
Temperature: 26.0°C (79°F)
Dewpoint: 15.0°C (59°F) [RH = 51%]
Pressure (altimeter): 29.73 inches Hg (1007.0 mb)
Winds: from the S (170 degrees) at 12 MPH (10 knots; 5.1 m/s)
Visibility: 6 or more miles (10+ km)
Ceiling: ceiling and visibility are OK
Clouds: unknown
Weather: no significant weather observed at this time

METAR text: ZGHA 180200Z 14004MPS 100V180 CAVOK 27/15 Q1007 NOSIG
Conditions at: ZGHA (HUANGHUA/CHANGSH, CN) observed 0200 UTC 18 April 2019
Temperature: 27.0°C (81°F)
Dewpoint: 15.0°C (59°F) [RH = 48%]
Pressure (altimeter): 29.73 inches Hg (1007.0 mb)
Winds: from the SE (140 degrees) at 9 MPH (8 knots; 4.1 m/s)
Visibility: 6 or more miles (10+ km)
Ceiling: ceiling and visibility are OK
Clouds: unknown
Weather: no significant weather observed at this time

METAR text: ZGHA 180100Z 16004MPS CAVOK 25/14 Q1007 NOSIG
Conditions at: ZGHA (HUANGHUA/CHANGSH, CN) observed 0100 UTC 18 April 2019
Temperature: 25.0°C (77°F)
Dewpoint: 14.0°C (57°F) [RH = 50%]
Pressure (altimeter): 29.73 inches Hg (1007.0 mb)
Winds: from the SSE (160 degrees) at 9 MPH (8 knots; 4.1 m/s)
Visibility: 6 or more miles (10+ km)
Ceiling: ceiling and visibility are OK
Clouds: unknown
Weather: no significant weather observed at this time

METAR text: ZGHA 180000Z 18002MPS CAVOK 21/14 Q1007 NOSIG
Conditions at: ZGHA (HUANGHUA/CHANGSH, CN) observed 0000 UTC 18 April 2019
Temperature: 21.0°C (70°F)
Dewpoint: 14.0°C (57°F) [RH = 64%]
Pressure (altimeter): 29.73 inches Hg (1007.0 mb)
Winds: from the S (180 degrees) at 5 MPH (4 knots; 2.1 m/s)
Visibility: 6 or more miles (10+ km)
Ceiling: ceiling and visibility are OK
Clouds: unknown
Weather: no significant weather observed at this time

METAR text: ZGHA 172300Z VRB01MPS CAVOK 20/13 Q1006 NOSIG
Conditions at: ZGHA (HUANGHUA/CHANGSH, CN) observed 2300 UTC 17 April 2019
Temperature: 20.0°C (68°F)
Dewpoint: 13.0°C (55°F) [RH = 64%]
Pressure (altimeter): 29.70 inches Hg (1006.0 mb)
Winds: variable direction winds at 2 MPH (2 knots; 1.0 m/s)
Visibility: 6 or more miles (10+ km)
Ceiling: ceiling and visibility are OK
Clouds: unknown
Weather: no significant weather observed at this time

METAR text: ZGHA 172200Z VRB01MPS CAVOK 19/15 Q1006 NOSIG
Conditions at: ZGHA (HUANGHUA/CHANGSH, CN) observed 2200 UTC 17 April 2019
Temperature: 19.0°C (66°F)
Dewpoint: 15.0°C (59°F) [RH = 78%]
Pressure (altimeter): 29.70 inches Hg (1006.0 mb)
Winds: variable direction winds at 2 MPH (2 knots; 1.0 m/s)
Visibility: 6 or more miles (10+ km)
Ceiling: ceiling and visibility are OK
Clouds: unknown
Weather: no significant weather observed at this time

METAR text: ZGHA 172100Z 22001MPS CAVOK 19/13 Q1006 NOSIG
Conditions at: ZGHA (HUANGHUA/CHANGSH, CN) observed 2100 UTC 17 April 2019
Temperature: 19.0°C (66°F)
Dewpoint: 13.0°C (55°F) [RH = 68%]
Pressure (altimeter): 29.70 inches Hg (1006.0 mb)
Winds: from the SW (220 degrees) at 2 MPH (2 knots; 1.0 m/s)
Visibility: 6 or more miles (10+ km)
Ceiling: ceiling and visibility are OK
Clouds: unknown
Weather: no significant weather observed at this time

METAR text: ZGHA 172000Z 27002MPS CAVOK 19/13 Q1006 NOSIG
Conditions at: ZGHA (HUANGHUA/CHANGSH, CN) observed 2000 UTC 17 April 2019
Temperature: 19.0°C (66°F)
Dewpoint: 13.0°C (55°F) [RH = 68%]
Pressure (altimeter): 29.70 inches Hg (1006.0 mb)
Winds: from the W (270 degrees) at 5 MPH (4 knots; 2.1 m/s)
Visibility: 6 or more miles (10+ km)
Ceiling: ceiling and visibility are OK
Clouds: unknown
Weather: no significant weather observed at this time

METAR text: ZGHA 171900Z 26001MPS CAVOK 19/14 Q1006 NOSIG
Conditions at: ZGHA (HUANGHUA/CHANGSH, CN) observed 1900 UTC 17 April 2019
Temperature: 19.0°C (66°F)
Dewpoint: 14.0°C (57°F) [RH = 73%]
Pressure (altimeter): 29.70 inches Hg (1006.0 mb)
Winds: from the W (260 degrees) at 2 MPH (2 knots; 1.0 m/s)
Visibility: 6 or more miles (10+ km)
Ceiling: ceiling and visibility are OK
Clouds: unknown
Weather: no significant weather observed at this time

METAR text: ZGHA 171800Z VRB01MPS CAVOK 19/13 Q1006 NOSIG
Conditions at: ZGHA (HUANGHUA/CHANGSH, CN) observed 1800 UTC 17 April 2019
Temperature: 19.0°C (66°F)
Dewpoint: 13.0°C (55°F) [RH = 68%]
Pressure (altimeter): 29.70 inches Hg (1006.0 mb)
Winds: variable direction winds at 2 MPH (2 knots; 1.0 m/s)
Visibility: 6 or more miles (10+ km)
Ceiling: ceiling and visibility are OK
Clouds: unknown
Weather: no significant weather observed at this time

METAR text: ZGHA 171700Z VRB01MPS CAVOK 20/13 Q1007 NOSIG
Conditions at: ZGHA (HUANGHUA/CHANGSH, CN) observed 1700 UTC 17 April 2019
Temperature: 20.0°C (68°F)
Dewpoint: 13.0°C (55°F) [RH = 64%]
Pressure (altimeter): 29.73 inches Hg (1007.0 mb)
Winds: variable direction winds at 2 MPH (2 knots; 1.0 m/s)
Visibility: 6 or more miles (10+ km)
Ceiling: ceiling and visibility are OK
Clouds: unknown
Weather: no significant weather observed at this time

METAR text: ZGHA 171600Z 23002MPS CAVOK 19/13 Q1007 NOSIG
Conditions at: ZGHA (HUANGHUA/CHANGSH, CN) observed 1600 UTC 17 April 2019
Temperature: 19.0°C (66°F)
Dewpoint: 13.0°C (55°F) [RH = 68%]
Pressure (altimeter): 29.73 inches Hg (1007.0 mb)
Winds: from the SW (230 degrees) at 5 MPH (4 knots; 2.1 m/s)
Visibility: 6 or more miles (10+ km)
Ceiling: ceiling and visibility are OK
Clouds: unknown
Weather: no significant weather observed at this time

METAR text: ZGHA 171500Z VRB01MPS CAVOK 21/13 Q1008 NOSIG
Conditions at: ZGHA (HUANGHUA/CHANGSH, CN) observed 1500 UTC 17 April 2019
Temperature: 21.0°C (70°F)
Dewpoint: 13.0°C (55°F) [RH = 60%]
Pressure (altimeter): 29.76 inches Hg (1008.0 mb)
Winds: variable direction winds at 2 MPH (2 knots; 1.0 m/s)
Visibility: 6 or more miles (10+ km)
Ceiling: ceiling and visibility are OK
Clouds: unknown
Weather: no significant weather observed at this time

METAR text: ZGHA 171400Z 14003MPS CAVOK 21/13 Q1008 NOSIG
Conditions at: ZGHA (HUANGHUA/CHANGSH, CN) observed 1400 UTC 17 April 2019
Temperature: 21.0°C (70°F)
Dewpoint: 13.0°C (55°F) [RH = 60%]
Pressure (altimeter): 29.76 inches Hg (1008.0 mb)
Winds: from the SE (140 degrees) at 7 MPH (6 knots; 3.1 m/s)
Visibility: 6 or more miles (10+ km)
Ceiling: ceiling and visibility are OK
Clouds: unknown
Weather: no significant weather observed at this time

METAR text: ZGHA 171300Z 14002MPS 100V180 CAVOK 22/12 Q1008 NOSIG
Conditions at: ZGHA (HUANGHUA/CHANGSH, CN) observed 1300 UTC 17 April 2019
Temperature: 22.0°C (72°F)
Dewpoint: 12.0°C (54°F) [RH = 53%]
Pressure (altimeter): 29.76 inches Hg (1008.0 mb)
Winds: from the SE (140 degrees) at 5 MPH (4 knots; 2.1 m/s)
Visibility: 6 or more miles (10+ km)
Ceiling: ceiling and visibility are OK
Clouds: unknown
Weather: no significant weather observed at this time

METAR text: ZGHA 171200Z 14002MPS 110V170 CAVOK 25/10 Q1007 NOSIG
Conditions at: ZGHA (HUANGHUA/CHANGSH, CN) observed 1200 UTC 17 April 2019
Temperature: 25.0°C (77°F)
Dewpoint: 10.0°C (50°F) [RH = 39%]
Pressure (altimeter): 29.73 inches Hg (1007.0 mb)
Winds: from the SE (140 degrees) at 5 MPH (4 knots; 2.1 m/s)
Visibility: 6 or more miles (10+ km)
Ceiling: ceiling and visibility are OK
Clouds: unknown
Weather: no significant weather observed at this time

METAR text: ZGHA 171100Z 16003MPS CAVOK 26/11 Q1007 NOSIG
Conditions at: ZGHA (HUANGHUA/CHANGSH, CN) observed 1100 UTC 17 April 2019
Temperature: 26.0°C (79°F)
Dewpoint: 11.0°C (52°F) [RH = 39%]
Pressure (altimeter): 29.73 inches Hg (1007.0 mb)
Winds: from the SSE (160 degrees) at 7 MPH (6 knots; 3.1 m/s)
Visibility: 6 or more miles (10+ km)
Ceiling: ceiling and visibility are OK
Clouds: unknown
Weather: no significant weather observed at this time

METAR text: ZGHA 171000Z 20002MPS 180V240 CAVOK 29/10 Q1007 NOSIG
Conditions at: ZGHA (HUANGHUA/CHANGSH, CN) observed 1000 UTC 17 April 2019
Temperature: 29.0°C (84°F)
Dewpoint: 10.0°C (50°F) [RH = 31%]
Pressure (altimeter): 29.73 inches Hg (1007.0 mb)
Winds: from the SSW (200 degrees) at 5 MPH (4 knots; 2.1 m/s)
Visibility: 6 or more miles (10+ km)
Ceiling: ceiling and visibility are OK
Clouds: unknown
Weather: no significant weather observed at this time

METAR text: ZGHA 170900Z 20005MPS CAVOK 29/10 Q1007 NOSIG
Conditions at: ZGHA (HUANGHUA/CHANGSH, CN) observed 0900 UTC 17 April 2019
Temperature: 29.0°C (84°F)
Dewpoint: 10.0°C (50°F) [RH = 31%]
Pressure (altimeter): 29.73 inches Hg (1007.0 mb)
Winds: from the SSW (200 degrees) at 12 MPH (10 knots; 5.1 m/s)
Visibility: 6 or more miles (10+ km)
Ceiling: ceiling and visibility are OK
Clouds: unknown
Weather: no significant weather observed at this time

METAR text: ZGHA 170800Z 21003G09MPS 160V250 CAVOK 29/09 Q1008 NOSIG
Conditions at: ZGHA (HUANGHUA/CHANGSH, CN) observed 0800 UTC 17 April 2019
Temperature: 29.0°C (84°F)
Dewpoint: 9.0°C (48°F) [RH = 29%]
Pressure (altimeter): 29.76 inches Hg (1008.0 mb)
Winds: from the SSW (210 degrees) at 7 MPH (6 knots; 3.1 m/s)
gusting to 20 MPH (17 knots; 8.7 m/s)
Visibility: 6 or more miles (10+ km)
Ceiling: ceiling and visibility are OK
Clouds: unknown
Weather: no significant weather observed at this time

METAR text: ZGHA 170700Z VRB04MPS CAVOK 29/09 Q1008 NOSIG
Conditions at: ZGHA (HUANGHUA/CHANGSH, CN) observed 0700 UTC 17 April 2019
Temperature: 29.0°C (84°F)
Dewpoint: 9.0°C (48°F) [RH = 29%]
Pressure (altimeter): 29.76 inches Hg (1008.0 mb)
Winds: variable direction winds at 9 MPH (8 knots; 4.1 m/s)
Visibility: 6 or more miles (10+ km)
Ceiling: ceiling and visibility are OK
Clouds: unknown
Weather: no significant weather observed at this time

Forecast for: ZGHA (HUANGHUA/CHANGSH, CN)
Text: TAF ZGHA 181454Z 1818/1918 03003MPS 6000 SCT040 TX26/1907Z TN19/1822Z
Forecast period: 1800 UTC 18 April 2019 to 1800 UTC 19 April 2019
Forecast type: FROM: standard forecast or significant change
Winds: from the NNE (30 degrees) at 7 MPH (6 knots; 3.1 m/s)
Visibility: 4 miles (6 km)
Ceiling: at least 12,000 feet AGL
Clouds: scattered clouds at 4000 feet AGL
Weather: no significant weather forecast for this period